Time;durP1;ratioP1;P1;durP2;ratioP2;P2;SDS_P1;SDS_P2;PMS_P1;PMS_P2;Temp;Humidity;BMP_temperature;BMP_pressure;BME280_temperature;BME280_humidity;BME280_pressure;Samples;Min_cycle;Max_cycle;Signal;HPM_P1;HPM_P2
2020/12/02 00:01:21;;;;;;;38.55;7.78;;;21.80;72.80;;;;;;5068922;28;20379;-87
2020/12/02 00:04:06;;;;;;;42.65;8.27;;;21.80;75.20;;;;;;5068841;28;20374;-87
2020/12/02 00:06:34;;;;;;;37.10;8.25;;;22.00;73.30;;;;;;5068639;28;20425;-86
2020/12/02 00:09:07;;;;;;;43.25;9.05;;;22.10;72.40;;;;;;5069238;28;20469;-88
2020/12/02 00:11:34;;;;;;;38.60;8.57;;;21.90;73.30;;;;;;5069027;28;20362;-87
2020/12/02 00:14:06;;;;;;;48.83;9.35;;;21.60;73.90;;;;;;5068965;28;20385;-86
2020/12/02 00:16:34;;;;;;;49.15;9.43;;;21.60;74.80;;;;;;5068804;28;20725;-86
2020/12/02 00:19:01;;;;;;;43.15;8.93;;;21.80;74.50;;;;;;5068703;28;20398;-87
2020/12/02 00:21:31;;;;;;;39.92;8.05;;;22.20;75.00;;;;;;5070715;28;20370;-87
2020/12/02 00:23:59;;;;;;;39.83;8.80;;;22.50;69.20;;;;;;5071978;28;20428;-87
2020/12/02 00:26:27;;;;;;;44.50;9.82;;;22.30;71.10;;;;;;5071579;28;20807;-89
2020/12/02 00:28:55;;;;;;;49.30;9.00;;;22.10;72.80;;;;;;5074061;28;20484;-87
2020/12/02 00:31:23;;;;;;;38.53;8.52;;;22.00;73.00;;;;;;5071839;28;20420;-87
2020/12/02 00:33:50;;;;;;;51.05;9.25;;;21.90;73.50;;;;;;5072461;28;20389;-87
2020/12/02 00:36:17;;;;;;;49.97;9.20;;;21.60;73.90;;;;;;5072462;28;20382;-87
2020/12/02 00:38:44;;;;;;;42.77;8.93;;;21.40;74.20;;;;;;5070780;28;20851;-87
2020/12/02 00:41:12;;;;;;;43.13;8.48;;;21.30;76.10;;;;;;5072373;28;20868;-86
2020/12/02 00:43:39;;;;;;;39.88;7.97;;;21.30;76.40;;;;;;5071858;28;20477;-86
2020/12/02 00:46:07;;;;;;;41.42;8.65;;;21.30;74.80;;;;;;5072198;28;20390;-87
2020/12/02 00:48:35;;;;;;;38.60;8.20;;;21.20;77.00;;;;;;5071112;28;20493;-86
2020/12/02 00:51:04;;;;;;;36.37;8.27;;;21.30;76.00;;;;;;5072128;28;20469;-85
2020/12/02 00:53:33;;;;;;;42.40;8.02;;;21.40;75.20;;;;;;5071609;28;20441;-86
2020/12/02 00:56:01;;;;;;;38.60;8.50;;;21.40;73.70;;;;;;5073459;28;21968;-86
2020/12/02 00:58:43;;;;;;;36.55;8.43;;;21.20;73.30;;;;;;5071116;28;20400;-86
2020/12/02 01:01:12;;;;;;;36.70;8.13;;;21.10;74.10;;;;;;5071203;28;20378;-87
2020/12/02 01:03:40;;;;;;;41.13;8.18;;;21.20;73.80;;;;;;5070889;28;20390;-86
2020/12/02 01:06:11;;;;;;;35.83;8.20;;;21.50;74.90;;;;;;5070707;28;20421;-87
2020/12/02 01:08:50;;;;;;;38.67;8.30;;;21.60;72.00;;;;;;5071148;28;20382;-87
2020/12/02 01:11:36;;;;;;;37.25;8.40;;;21.70;73.10;;;;;;5071403;28;20374;-87
2020/12/02 01:14:08;;;;;;;33.42;8.27;;;21.90;70.80;;;;;;5071440;28;20419;-84
2020/12/02 01:16:45;;;;;;;33.47;7.57;;;22.00;71.10;;;;;;5071014;28;20461;-87
2020/12/02 01:19:15;;;;;;;38.22;8.77;;;21.90;72.30;;;;;;5071274;28;20451;-87
2020/12/02 01:22:05;;;;;;;35.77;8.10;;;21.80;70.20;;;;;;5071497;28;20398;-86
2020/12/02 01:24:39;;;;;;;37.08;8.25;;;21.90;72.00;;;;;;5069792;28;20426;-86
2020/12/02 01:27:12;;;;;;;36.13;8.80;;;22.10;70.00;;;;;;5071027;28;20397;-86
2020/12/02 01:29:40;;;;;;;41.00;8.80;;;22.20;69.50;;;;;;5070790;28;20423;-86
2020/12/02 01:32:07;;;;;;;31.73;8.02;;;22.00;71.40;;;;;;5073692;28;20382;-86
2020/12/02 01:34:34;;;;;;;35.28;8.38;;;21.80;72.70;;;;;;5071283;28;20484;-85
2020/12/02 01:37:29;;;;;;;44.83;9.15;;;21.80;72.80;;;;;;5069844;28;20386;-86
2020/12/02 01:40:03;;;;;;;40.92;8.45;;;21.70;73.10;;;;;;5064079;28;20386;-88
2020/12/02 01:42:30;;;;;;;39.63;8.73;;;21.60;73.50;;;;;;5069987;28;20394;-88
2020/12/02 01:44:57;;;;;;;43.40;8.52;;;21.50;72.10;;;;;;5071399;28;20799;-88
2020/12/02 01:47:40;;;;;;;37.10;8.45;;;21.50;73.60;;;;;;5071593;28;20401;-87
2020/12/02 01:50:33;;;;;;;38.47;8.80;;;21.60;74.60;;;;;;5071190;28;20532;-86
2020/12/02 01:53:07;;;;;;;44.25;8.85;;;21.60;74.10;;;;;;5071435;28;20409;-87
2020/12/02 01:56:05;;;;;;;40.65;9.32;;;21.40;75.30;;;;;;5070805;28;20757;-87
2020/12/02 01:59:00;;;;;;;47.45;9.40;;;21.20;76.90;;;;;;5065270;28;20406;-88
2020/12/02 02:01:54;;;;;;;42.80;8.63;;;21.20;76.80;;;;;;5041726;28;20390;-87
2020/12/02 02:04:29;;;;;;;37.85;8.23;;;21.30;77.60;;;;;;5070909;28;20404;-88
2020/12/02 02:07:19;;;;;;;44.85;8.73;;;21.50;75.20;;;;;;5069064;28;20497;-88
2020/12/02 02:09:53;;;;;;;40.30;9.00;;;21.60;73.90;;;;;;5069961;28;20402;-88
2020/12/02 02:13:01;;;;;;;35.00;8.13;;;21.50;74.70;;;;;;5070577;28;20469;-89
2020/12/02 02:15:51;;;;;;;45.50;8.68;;;21.70;75.10;;;;;;5069509;28;20382;-87
2020/12/02 02:18:23;;;;;;;37.22;8.25;;;21.80;74.30;;;;;;5070370;28;20436;-88
2020/12/02 02:20:58;;;;;;;37.15;8.32;;;21.70;73.20;;;;;;5071102;28;20809;-87
2020/12/02 02:23:25;;;;;;;52.42;8.68;;;21.60;73.00;;;;;;5070383;28;20386;-86
2020/12/02 02:26:11;;;;;;;38.50;8.57;;;21.20;74.50;;;;;;5068493;28;20393;-88
2020/12/02 02:28:54;;;;;;;40.88;7.88;;;21.00;76.00;;;;;;5070804;28;20385;-87
2020/12/02 02:31:24;;;;;;;46.80;8.63;;;20.80;77.00;;;;;;5070612;28;20377;-87
2020/12/02 02:33:52;;;;;;;42.55;7.80;;;20.70;76.50;;;;;;5070198;28;20396;-86
2020/12/02 02:36:24;;;;;;;45.95;8.55;;;20.40;78.20;;;;;;5071133;28;20431;-85
2020/12/02 02:38:54;;;;;;;42.20;8.82;;;20.10;84.00;;;;;;5071338;28;20422;-85
2020/12/02 02:41:23;;;;;;;45.95;8.75;;;19.80;85.50;;;;;;5069519;28;20378;-85
2020/12/02 02:43:50;;;;;;;46.90;8.32;;;19.50;88.90;;;;;;5067390;28;20456;-86
2020/12/02 02:46:17;;;;;;;52.03;8.63;;;19.20;86.60;;;;;;5068030;28;20876;-87
2020/12/02 02:48:44;;;;;;;39.50;8.13;;;19.10;88.80;;;;;;5069976;28;20385;-87
2020/12/02 02:51:11;;;;;;;49.20;9.50;;;19.00;89.00;;;;;;5077502;28;20376;-86
2020/12/02 02:53:38;;;;;;;39.50;8.57;;;18.90;90.60;;;;;;5089835;28;20380;-86
2020/12/02 02:56:05;;;;;;;49.33;8.98;;;19.10;91.50;;;;;;5088902;28;20954;-87
2020/12/02 02:58:32;;;;;;;51.90;9.13;;;19.20;90.30;;;;;;5090400;28;20379;-87
2020/12/02 03:01:01;;;;;;;46.55;9.38;;;19.30;89.50;;;;;;5090382;28;20376;-87
2020/12/02 03:03:30;;;;;;;48.95;9.50;;;19.40;88.00;;;;;;5090335;28;20442;-86
2020/12/02 03:06:00;;;;;;;48.35;8.80;;;19.60;89.70;;;;;;5090597;28;20384;-86
2020/12/02 03:08:28;;;;;;;44.57;7.73;;;19.60;88.50;;;;;;5090528;28;20451;-88
2020/12/02 03:10:58;;;;;;;49.72;9.65;;;19.60;86.30;;;;;;5076814;28;20381;-87
2020/12/02 03:13:25;;;;;;;44.70;8.30;;;19.50;87.50;;;;;;5069359;28;20395;-88
2020/12/02 03:15:52;;;;;;;48.72;8.13;;;19.40;88.00;;;;;;5069079;28;20860;-87
2020/12/02 03:18:21;;;;;;;46.10;8.27;;;19.40;88.80;;;;;;5067570;28;20389;-87
2020/12/02 03:20:55;;;;;;;49.28;8.77;;;19.40;90.20;;;;;;5069311;28;20386;-88
2020/12/02 03:23:22;;;;;;;41.17;8.38;;;19.30;89.20;;;;;;5069463;28;20381;-88
2020/12/02 03:25:49;;;;;;;48.33;8.65;;;19.20;88.00;;;;;;5069133;28;20455;-88
2020/12/02 03:28:17;;;;;;;49.42;9.27;;;19.10;90.00;;;;;;5068349;28;20405;-88
2020/12/02 03:30:44;;;;;;;44.17;9.90;;;19.00;90.00;;;;;;5068093;28;20370;-88
2020/12/02 03:33:14;;;;;;;51.30;9.43;;;18.90;89.60;;;;;;5069413;28;20386;-88
2020/12/02 03:35:41;;;;;;;48.85;8.93;;;19.00;89.50;;;;;;5069078;28;20424;-89
2020/12/02 03:38:09;;;;;;;46.28;8.73;;;19.00;89.20;;;;;;5069244;28;20401;-89
2020/12/02 03:40:36;;;;;;;45.03;8.27;;;19.10;88.60;;;;;;5069630;28;20763;-88
2020/12/02 03:43:03;;;;;;;44.13;8.90;;;19.20;90.00;;;;;;5069127;28;20377;-88
2020/12/02 03:45:30;;;;;;;45.90;8.38;;;19.50;87.50;;;;;;5069281;28;20374;-89
2020/12/02 03:47:57;;;;;;;48.13;8.57;;;19.60;86.00;;;;;;5069124;28;20725;-89
2020/12/02 03:50:24;;;;;;;46.03;8.23;;;19.70;87.30;;;;;;5071250;28;20713;-89
2020/12/02 03:52:51;;;;;;;45.03;8.70;;;19.80;85.00;;;;;;5069745;28;20757;-89
2020/12/02 03:55:18;;;;;;;44.70;7.75;;;20.00;84.40;;;;;;5072467;28;20795;-89
2020/12/02 03:57:45;;;;;;;47.05;8.63;;;20.00;83.60;;;;;;5073673;28;20832;-90
2020/12/02 04:00:12;;;;;;;47.08;8.68;;;19.90;82.60;;;;;;5071254;28;20933;-88
2020/12/02 04:02:39;;;;;;;49.72;8.45;;;20.10;84.70;;;;;;5074569;28;20876;-90
2020/12/02 04:05:10;;;;;;;41.88;7.53;;;20.30;80.20;;;;;;5073116;28;20424;-89
2020/12/02 04:07:37;;;;;;;41.63;8.40;;;20.30;82.60;;;;;;5072990;28;20504;-89
2020/12/02 04:10:05;;;;;;;42.45;8.32;;;20.40;80.90;;;;;;5071751;28;20480;-90
2020/12/02 04:12:32;;;;;;;39.28;7.72;;;20.50;80.50;;;;;;5071406;28;21261;-89
2020/12/02 04:14:59;;;;;;;39.30;7.97;;;20.50;79.40;;;;;;5087616;28;20803;-89
2020/12/02 04:17:26;;;;;;;45.08;8.65;;;20.40;79.40;;;;;;5071348;28;20465;-90
2020/12/02 04:19:53;;;;;;;35.23;8.23;;;20.50;81.30;;;;;;5071777;28;20459;-89
2020/12/02 04:22:20;;;;;;;44.80;8.93;;;20.50;79.00;;;;;;5073054;28;20456;-89
2020/12/02 04:24:47;;;;;;;40.90;8.03;;;20.30;79.60;;;;;;5073494;28;20422;-89
2020/12/02 04:27:16;;;;;;;44.17;8.73;;;20.20;81.80;;;;;;5073242;28;20409;-88
2020/12/02 04:29:45;;;;;;;45.67;8.68;;;20.00;80.80;;;;;;5073454;28;20474;-90
2020/12/02 04:32:12;;;;;;;36.00;7.25;;;19.90;82.00;;;;;;5072902;28;20390;-89
2020/12/02 04:34:39;;;;;;;43.63;7.85;;;19.80;81.30;;;;;;5088507;28;20390;-90
2020/12/02 04:37:06;;;;;;;33.50;7.53;;;19.90;83.10;;;;;;5072513;28;20465;-88
2020/12/02 04:39:33;;;;;;;35.63;7.53;;;20.00;79.10;;;;;;5072335;28;20378;-89
2020/12/02 04:42:00;;;;;;;37.10;8.00;;;20.00;79.40;;;;;;5072432;28;20370;-89
2020/12/02 04:44:27;;;;;;;37.35;7.97;;;20.00;79.20;;;;;;5072380;28;20382;-90
2020/12/02 04:46:57;;;;;;;37.67;7.78;;;20.00;79.60;;;;;;5071025;28;20398;-89
2020/12/02 04:49:35;;;;;;;47.83;9.23;;;20.10;81.10;;;;;;5072374;28;20366;-89
2020/12/02 04:52:10;;;;;;;39.05;8.07;;;20.20;80.00;;;;;;5071192;28;20883;-90
2020/12/02 04:54:37;;;;;;;39.38;8.05;;;20.20;80.50;;;;;;5072641;28;20450;-88
2020/12/02 04:57:04;;;;;;;38.08;7.93;;;20.30;80.10;;;;;;5072265;28;20398;-89
2020/12/02 04:59:36;;;;;;;38.60;7.95;;;20.20;77.70;;;;;;5072119;28;20374;-87
2020/12/02 05:02:04;;;;;;;37.70;7.57;;;20.00;78.30;;;;;;5072063;28;20857;-88
2020/12/02 05:04:32;;;;;;;37.30;8.10;;;19.90;78.40;;;;;;5071803;28;20436;-87
2020/12/02 05:07:02;;;;;;;42.97;7.85;;;19.90;79.00;;;;;;5069896;28;20414;-88
2020/12/02 05:09:29;;;;;;;39.05;7.43;;;19.90;78.90;;;;;;5071930;28;20374;-89
2020/12/02 05:12:01;;;;;;;36.92;7.18;;;19.90;78.70;;;;;;5070425;28;20388;-87
2020/12/02 05:14:40;;;;;;;34.85;7.32;;;19.90;79.10;;;;;;5071962;28;20370;-87
2020/12/02 05:17:22;;;;;;;35.67;7.25;;;19.80;78.40;;;;;;5071865;28;20424;-88
2020/12/02 05:20:08;;;;;;;38.90;7.45;;;19.70;79.20;;;;;;5053559;28;20382;-88
2020/12/02 05:22:38;;;;;;;39.97;8.07;;;19.70;79.10;;;;;;5069850;28;20382;-90
2020/12/02 05:25:14;;;;;;;35.25;7.78;;;19.70;79.60;;;;;;5071273;28;20386;-89
2020/12/02 05:27:46;;;;;;;33.97;7.57;;;19.60;77.60;;;;;;5071212;28;20906;-88
2020/12/02 05:30:13;;;;;;;40.17;7.70;;;19.60;80.00;;;;;;5071251;28;20382;-89
2020/12/02 05:32:40;;;;;;;39.90;7.03;;;19.60;79.70;;;;;;5071214;28;20412;-89
2020/12/02 05:35:15;;;;;;;34.50;7.10;;;19.60;80.40;;;;;;5071223;28;20373;-88
2020/12/02 05:37:53;;;;;;;34.67;7.60;;;19.60;80.40;;;;;;5069967;28;20408;-89
2020/12/02 05:40:22;;;;;;;38.53;8.73;;;19.70;80.90;;;;;;5071367;28;20439;-88
2020/12/02 05:43:02;;;;;;;39.25;7.47;;;19.80;80.10;;;;;;5071330;28;20362;-88
2020/12/02 05:45:38;;;;;;;40.83;8.18;;;19.90;80.10;;;;;;5070743;28;20379;-89
2020/12/02 05:48:20;;;;;;;39.03;8.07;;;19.90;81.40;;;;;;5069268;28;20746;-88
2020/12/02 05:50:47;;;;;;;36.15;7.40;;;19.80;81.00;;;;;;5071494;28;20374;-89
2020/12/02 05:53:40;;;;;;;40.78;7.38;;;19.80;81.00;;;;;;5070920;28;20405;-88
2020/12/02 05:56:10;;;;;;;41.90;7.88;;;19.60;81.80;;;;;;5070384;28;20378;-89
2020/12/02 05:58:41;;;;;;;45.53;8.13;;;19.50;82.50;;;;;;5070205;28;20717;-88
2020/12/02 06:01:17;;;;;;;37.40;7.40;;;19.50;82.80;;;;;;5070342;28;20458;-87
2020/12/02 06:03:50;;;;;;;38.05;7.03;;;19.40;82.00;;;;;;5070528;28;20886;-88
2020/12/02 06:06:17;;;;;;;39.75;7.78;;;19.30;82.00;;;;;;5070388;28;20396;-87
2020/12/02 06:08:47;;;;;;;39.55;6.93;;;19.30;82.00;;;;;;5070386;28;20860;-88
2020/12/02 06:11:23;;;;;;;37.35;7.05;;;19.30;82.60;;;;;;5070279;28;20370;-89
2020/12/02 06:13:59;;;;;;;41.05;7.78;;;19.30;83.40;;;;;;5070180;28;20378;-88
2020/12/02 06:16:48;;;;;;;36.38;7.43;;;19.20;82.00;;;;;;5070331;28;20840;-87
2020/12/02 06:19:20;;;;;;;39.72;7.82;;;19.10;82.70;;;;;;5068241;28;20378;-88
2020/12/02 06:21:55;;;;;;;39.20;7.93;;;19.00;83.80;;;;;;5070435;28;20363;-89
2020/12/02 06:24:36;;;;;;;42.30;8.20;;;19.00;83.50;;;;;;5069950;28;20393;-88
2020/12/02 06:27:27;;;;;;;39.80;7.47;;;19.00;83.50;;;;;;5069747;28;20406;-88
2020/12/02 06:30:06;;;;;;;42.43;7.57;;;18.90;82.40;;;;;;5069320;28;20431;-88
2020/12/02 06:32:34;;;;;;;41.50;7.70;;;18.90;83.80;;;;;;5069154;28;20791;-87
2020/12/02 06:35:21;;;;;;;38.57;7.37;;;18.90;82.90;;;;;;5069988;28;20413;-87
2020/12/02 06:38:09;;;;;;;42.10;8.10;;;18.90;83.60;;;;;;5069389;28;20390;-88
2020/12/02 06:40:36;;;;;;;42.13;7.55;;;18.90;82.90;;;;;;5070304;28;20397;-87
2020/12/02 06:43:06;;;;;;;44.10;8.30;;;18.90;83.00;;;;;;5068949;28;20536;-87
2020/12/02 06:45:37;;;;;;;38.65;6.88;;;18.90;83.00;;;;;;5064736;28;20373;-85
2020/12/02 06:48:39;;;;;;;39.40;7.57;;;18.80;82.90;;;;;;5063144;28;20418;-87
2020/12/02 06:51:16;;;;;;;31.30;6.93;;;18.80;83.20;;;;;;5062415;28;20477;-87
2020/12/02 06:53:43;;;;;;;44.50;7.53;;;18.80;83.30;;;;;;5053568;28;20421;-87
2020/12/02 06:56:17;;;;;;;45.22;7.85;;;18.90;83.60;;;;;;5069236;28;20435;-87
2020/12/02 06:58:59;;;;;;;39.90;6.65;;;18.80;83.60;;;;;;5069130;28;20456;-86
2020/12/02 07:01:28;;;;;;;39.67;6.93;;;18.80;83.30;;;;;;5069352;28;20396;-87
2020/12/02 07:04:14;;;;;;;36.33;6.93;;;18.80;83.30;;;;;;5068791;28;20804;-87
2020/12/02 07:06:41;;;;;;;39.30;7.85;;;18.80;83.10;;;;;;5066973;28;20406;-87
2020/12/02 07:09:17;;;;;;;33.83;6.33;;;18.80;83.70;;;;;;5070040;28;20370;-90
2020/12/02 07:11:54;;;;;;;35.95;6.78;;;18.80;83.80;;;;;;5069455;28;20377;-88
2020/12/02 07:14:24;;;;;;;36.37;7.17;;;18.70;84.00;;;;;;5069401;28;20421;-90
2020/12/02 07:16:58;;;;;;;34.80;7.20;;;18.70;85.00;;;;;;5069695;28;20504;-88
2020/12/02 07:19:30;;;;;;;33.67;7.63;;;18.70;84.60;;;;;;5069349;28;20389;-86
2020/12/02 07:22:21;;;;;;;31.58;6.40;;;18.70;84.40;;;;;;5069459;28;20385;-88
2020/12/02 07:24:51;;;;;;;36.42;7.03;;;18.70;84.70;;;;;;5069161;28;20849;-87
2020/12/02 07:27:22;;;;;;;30.80;6.10;;;18.70;85.30;;;;;;5069056;28;20988;-87
2020/12/02 07:30:04;;;;;;;30.40;6.38;;;18.70;84.80;;;;;;5070297;28;20386;-86
2020/12/02 07:32:31;;;;;;;32.28;6.25;;;18.70;85.40;;;;;;5072979;28;20377;-87
2020/12/02 07:35:10;;;;;;;42.33;7.50;;;18.60;85.10;;;;;;5072996;28;20404;-87
2020/12/02 07:37:37;;;;;;;35.30;6.43;;;18.60;84.90;;;;;;5075615;28;20429;-86
2020/12/02 07:40:30;;;;;;;37.55;7.20;;;18.50;84.40;;;;;;5072819;28;20859;-86
2020/12/02 07:42:59;;;;;;;35.15;6.70;;;18.50;84.60;;;;;;5073532;28;20378;-85
2020/12/02 07:45:33;;;;;;;35.63;6.65;;;18.50;84.60;;;;;;5072414;28;20874;-86
2020/12/02 07:48:14;;;;;;;36.72;6.20;;;18.50;85.50;;;;;;5072632;28;20433;-85
2020/12/02 07:50:45;;;;;;;35.50;7.45;;;18.40;85.70;;;;;;5073156;28;20377;-86
2020/12/02 07:53:15;;;;;;;34.55;7.35;;;18.50;85.00;;;;;;5072204;28;20750;-85
2020/12/02 07:55:45;;;;;;;35.58;6.72;;;18.50;85.20;;;;;;5072057;28;20468;-87
2020/12/02 07:58:36;;;;;;;35.20;6.53;;;18.50;84.40;;;;;;5073042;28;20374;-88
2020/12/02 08:01:31;;;;;;;33.15;6.35;;;18.50;85.00;;;;;;5073279;28;20386;-88
2020/12/02 08:04:18;;;;;;;37.75;6.60;;;18.50;85.40;;;;;;5075277;28;20380;-89
2020/12/02 08:07:02;;;;;;;35.08;6.85;;;18.40;85.60;;;;;;5072007;28;20467;-87
2020/12/02 08:09:37;;;;;;;31.08;6.43;;;18.40;85.10;;;;;;5072484;28;20516;-88
2020/12/02 08:12:14;;;;;;;37.47;6.60;;;18.40;86.00;;;;;;5073203;28;20424;-91
2020/12/02 08:14:49;;;;;;;35.50;6.70;;;18.30;86.20;;;;;;5071240;28;20390;-88
2020/12/02 08:17:22;;;;;;;36.10;6.75;;;18.20;86.10;;;;;;5073117;28;20409;-89
2020/12/02 08:19:52;;;;;;;41.90;6.85;;;18.20;86.80;;;;;;5072265;28;20386;-88
2020/12/02 08:22:51;;;;;;;35.08;6.70;;;18.10;86.50;;;;;;5072816;28;20394;-89
2020/12/02 08:25:34;;;;;;;33.95;6.43;;;18.10;86.70;;;;;;5073395;28;20774;-88
2020/12/02 08:28:10;;;;;;;34.10;6.13;;;18.10;86.70;;;;;;5073984;28;20401;-89
2020/12/02 08:30:38;;;;;;;39.88;6.88;;;18.10;87.00;;;;;;5073512;28;20729;-90
2020/12/02 08:33:12;;;;;;;34.67;6.13;;;18.10;87.50;;;;;;5073367;28;20939;-89
2020/12/02 08:35:48;;;;;;;37.70;7.20;;;18.00;87.90;;;;;;5073440;28;20436;-90
2020/12/02 08:38:25;;;;;;;40.08;7.32;;;17.90;88.40;;;;;;5075445;28;20415;-88
2020/12/02 08:40:55;;;;;;;34.00;7.03;;;17.90;89.00;;;;;;5074854;28;20401;-93
2020/12/02 08:43:28;;;;;;;36.85;6.32;;;17.90;89.80;;;;;;5077374;28;20452;-92
2020/12/02 08:46:08;;;;;;;34.57;6.40;;;17.90;89.90;;;;;;5073980;28;20424;-91
2020/12/02 08:48:36;;;;;;;35.40;6.57;;;17.80;89.40;;;;;;5073597;28;20879;-90
2020/12/02 08:51:09;;;;;;;37.60;6.40;;;17.80;89.70;;;;;;5075947;28;20374;-89
2020/12/02 08:53:36;;;;;;;41.45;6.90;;;17.80;89.80;;;;;;5072767;28;20788;-92
2020/12/02 08:56:04;;;;;;;39.63;7.05;;;17.80;89.80;;;;;;5072844;28;20402;-89
2020/12/02 08:58:31;;;;;;;33.97;6.33;;;17.80;89.70;;;;;;5072214;28;20771;-89
2020/12/02 09:00:58;;;;;;;35.55;7.07;;;17.80;89.40;;;;;;5072315;28;20370;-90
2020/12/02 09:03:25;;;;;;;28.75;5.78;;;17.80;89.10;;;;;;5071885;28;20378;-88
2020/12/02 09:05:53;;;;;;;31.65;6.32;;;17.90;89.40;;;;;;5072740;28;20406;-87
2020/12/02 09:08:20;;;;;;;34.72;6.47;;;17.90;89.50;;;;;;5071451;28;20753;-87
2020/12/02 09:10:47;;;;;;;32.30;6.20;;;17.90;89.90;;;;;;5070938;28;20477;-88
2020/12/02 09:13:14;;;;;;;35.28;6.28;;;17.80;90.60;;;;;;5069868;28;20401;-90
2020/12/02 09:15:41;;;;;;;33.45;6.35;;;17.80;90.80;;;;;;5070395;28;20457;-90
2020/12/02 09:18:08;;;;;;;35.70;6.53;;;17.60;91.40;;;;;;5070576;28;20401;-90
2020/12/02 09:20:35;;;;;;;38.38;6.90;;;17.50;91.80;;;;;;5071557;28;20398;-90
2020/12/02 09:23:02;;;;;;;38.17;6.78;;;17.40;92.10;;;;;;5070998;28;20370;-88
2020/12/02 09:25:30;;;;;;;34.67;6.03;;;17.30;92.70;;;;;;5072630;28;20461;-91
2020/12/02 09:27:57;;;;;;;42.15;6.88;;;17.20;91.60;;;;;;5075279;28;20402;-91
2020/12/02 09:30:24;;;;;;;40.08;6.60;;;17.10;92.10;;;;;;5070335;28;20378;-91
2020/12/02 09:32:51;;;;;;;34.97;6.28;;;17.10;92.40;;;;;;5070061;28;20408;-86
2020/12/02 09:35:18;;;;;;;36.58;6.43;;;17.10;92.80;;;;;;5068914;28;20920;-88
2020/12/02 09:37:45;;;;;;;30.70;6.20;;;17.10;92.40;;;;;;5066493;28;20388;-88
2020/12/02 09:40:14;;;;;;;29.45;6.05;;;17.10;92.70;;;;;;5065710;28;20935;-88
2020/12/02 09:43:02;;;;;;;36.58;6.38;;;17.10;92.30;;;;;;5067505;28;20394;-92
2020/12/02 09:46:12;;;;;;;33.28;5.78;;;17.10;92.40;;;;;;5066275;28;20386;-88
2020/12/02 09:48:39;;;;;;;36.83;6.65;;;17.10;92.70;;;;;;5066323;28;20420;-89
2020/12/02 09:51:27;;;;;;;35.30;6.78;;;17.10;92.40;;;;;;5066467;28;20932;-88
2020/12/02 09:53:56;;;;;;;38.78;7.07;;;17.10;92.40;;;;;;5067776;28;20382;-86
2020/12/02 09:56:27;;;;;;;35.30;6.37;;;17.10;92.70;;;;;;5067199;28;20406;-89
2020/12/02 09:59:06;;;;;;;43.22;6.55;;;17.00;93.00;;;;;;5067546;28;20444;-89
2020/12/02 10:02:01;;;;;;;41.75;6.32;;;17.00;93.20;;;;;;5067212;28;20381;-89
2020/12/02 10:04:49;;;;;;;40.40;6.13;;;16.90;93.50;;;;;;5068049;28;20955;-91
2020/12/02 10:07:23;;;;;;;33.13;6.38;;;16.80;93.80;;;;;;5067545;28;20765;-90
2020/12/02 10:10:25;;;;;;;43.05;6.90;;;16.70;93.90;;;;;;5067512;28;20390;-90
2020/12/02 10:13:26;;;;;;;38.97;7.07;;;16.70;94.30;;;;;;5066003;28;20432;-90
2020/12/02 10:16:04;;;;;;;35.15;6.95;;;16.70;94.50;;;;;;5067427;28;20784;-91
2020/12/02 10:18:59;;;;;;;40.35;6.78;;;16.60;94.60;;;;;;5067302;28;20892;-91
2020/12/02 10:21:58;;;;;;;35.97;5.70;;;16.60;94.30;;;;;;5068248;28;20366;-89
2020/12/02 10:24:34;;;;;;;39.00;6.57;;;16.50;94.60;;;;;;5066631;28;20421;-88
2020/12/02 10:27:41;;;;;;;40.35;6.85;;;16.40;94.90;;;;;;5067989;28;20885;-88
2020/12/02 10:30:29;;;;;;;42.55;7.28;;;16.40;95.10;;;;;;5050871;28;20418;-89
2020/12/02 10:33:27;;;;;;;47.05;7.47;;;16.30;95.10;;;;;;5078879;28;20390;-86
2020/12/02 10:35:59;;;;;;;42.95;6.68;;;16.30;95.20;;;;;;5061918;28;20390;-86
2020/12/02 10:38:44;;;;;;;41.92;7.18;;;16.30;95.50;;;;;;5066546;28;20791;-88
2020/12/02 10:41:55;;;;;;;46.10;6.65;;;16.30;95.70;;;;;;5071937;28;20384;-89
2020/12/02 10:44:49;;;;;;;44.45;6.88;;;16.30;95.70;;;;;;5046561;28;20462;-90
2020/12/02 10:47:20;;;;;;;40.83;7.13;;;16.30;95.90;;;;;;5060526;28;20444;-90
2020/12/02 10:49:48;;;;;;;42.77;6.80;;;16.30;95.80;;;;;;5066875;28;20469;-89
2020/12/02 10:52:18;;;;;;;42.35;6.65;;;16.30;95.90;;;;;;5065487;28;20738;-89
2020/12/02 10:54:50;;;;;;;38.70;6.63;;;16.20;96.10;;;;;;5065153;28;20386;-87
2020/12/02 10:57:23;;;;;;;40.28;7.18;;;16.20;96.10;;;;;;5072038;28;20458;-89
2020/12/02 10:59:53;;;;;;;35.63;6.75;;;16.20;96.10;;;;;;5073193;28;20394;-90
2020/12/02 11:02:32;;;;;;;43.13;6.95;;;16.20;96.30;;;;;;5067410;28;20427;-88
2020/12/02 11:04:59;;;;;;;41.08;6.50;;;16.20;96.40;;;;;;5074404;28;20393;-92
2020/12/02 11:07:44;;;;;;;44.33;6.95;;;16.20;96.30;;;;;;5084146;28;20408;-90
2020/12/02 11:10:32;;;;;;;41.47;6.75;;;16.10;96.30;;;;;;5077417;28;20376;-90
2020/12/02 11:13:22;;;;;;;36.45;5.90;;;16.10;96.50;;;;;;5083482;28;20438;-91
2020/12/02 11:16:02;;;;;;;45.15;6.50;;;16.10;96.70;;;;;;5085421;28;20373;-90
2020/12/02 11:18:38;;;;;;;39.17;5.87;;;16.10;96.60;;;;;;5086055;28;20384;-90
2020/12/02 11:21:24;;;;;;;34.10;6.23;;;16.10;97.00;;;;;;5078657;28;20481;-89
2020/12/02 11:24:00;;;;;;;38.75;6.88;;;16.10;96.70;;;;;;5068463;28;20500;-91
2020/12/02 11:26:31;;;;;;;36.80;6.10;;;16.10;96.50;;;;;;5066543;28;20390;-90
2020/12/02 11:29:01;;;;;;;40.70;6.95;;;16.20;96.40;;;;;;5067191;28;20389;-90
2020/12/02 11:31:40;;;;;;;34.70;5.93;;;16.20;96.40;;;;;;5067650;28;20394;-89
2020/12/02 11:34:25;;;;;;;36.83;5.97;;;16.20;96.40;;;;;;5066885;28;20396;-88
2020/12/02 11:37:01;;;;;;;38.75;7.07;;;16.20;96.60;;;;;;5064903;28;20397;-87
2020/12/02 11:39:34;;;;;;;40.47;6.57;;;16.10;96.40;;;;;;5071876;28;20390;-89
2020/12/02 11:42:04;;;;;;;39.00;6.78;;;16.20;96.40;;;;;;5069028;28;20405;-87
2020/12/02 11:45:01;;;;;;;40.90;6.10;;;16.20;96.30;;;;;;5070439;28;20381;-88
2020/12/02 11:47:41;;;;;;;36.58;6.90;;;16.20;96.40;;;;;;5060315;28;20469;-88
2020/12/02 11:50:36;;;;;;;38.17;6.50;;;16.20;96.30;;;;;;5071785;28;20400;-89
2020/12/02 11:53:30;;;;;;;33.17;5.95;;;16.20;96.20;;;;;;5070199;28;20393;-88
2020/12/02 11:55:57;;;;;;;36.30;6.38;;;16.20;96.30;;;;;;5069517;28;21100;-89
2020/12/02 11:58:24;;;;;;;30.63;6.22;;;16.20;96.10;;;;;;5069186;28;20404;-89
2020/12/02 12:00:58;;;;;;;36.10;5.78;;;16.20;96.10;;;;;;5058848;28;20473;-87
2020/12/02 12:03:47;;;;;;;31.40;5.55;;;16.20;96.20;;;;;;5076279;28;20405;-87
2020/12/02 12:06:25;;;;;;;39.55;6.15;;;16.20;96.30;;;;;;5077612;28;20491;-89
2020/12/02 12:09:05;;;;;;;30.33;5.70;;;16.30;96.30;;;;;;5065588;28;20401;-87
2020/12/02 12:11:37;;;;;;;34.30;6.43;;;16.30;96.10;;;;;;5071061;28;20443;-89
2020/12/02 12:14:50;;;;;;;37.08;6.15;;;16.30;96.00;;;;;;5087612;28;20393;-89
2020/12/02 12:17:28;;;;;;;36.83;6.45;;;16.30;96.20;;;;;;5025119;28;20395;-89
2020/12/02 12:20:16;;;;;;;40.38;6.20;;;16.30;96.20;;;;;;5085603;28;20401;-89
2020/12/02 12:23:07;;;;;;;40.65;6.13;;;16.30;96.20;;;;;;5073752;28;20378;-91
2020/12/02 12:25:36;;;;;;;34.38;6.13;;;16.30;96.00;;;;;;5075871;28;20390;-88
2020/12/02 12:28:17;;;;;;;40.30;6.30;;;16.30;96.20;;;;;;5073122;28;20435;-89
2020/12/02 12:30:44;;;;;;;43.47;6.88;;;16.20;96.30;;;;;;5080590;28;20388;-89
2020/12/02 12:33:40;;;;;;;31.90;5.63;;;16.20;96.40;;;;;;5082291;28;20973;-90
2020/12/02 12:36:20;;;;;;;40.10;6.63;;;16.20;96.60;;;;;;5077311;28;20726;-88
2020/12/02 12:39:04;;;;;;;31.90;6.35;;;16.30;96.60;;;;;;5082734;28;20482;-90
2020/12/02 12:41:43;;;;;;;36.13;6.47;;;16.30;96.20;;;;;;5069656;28;20757;-89
2020/12/02 12:44:26;;;;;;;40.78;6.40;;;16.30;96.10;;;;;;5067639;28;20386;-89
2020/12/02 12:46:56;;;;;;;36.10;6.17;;;16.30;96.20;;;;;;5076422;28;20512;-90
2020/12/02 12:49:24;;;;;;;33.53;6.07;;;16.30;96.40;;;;;;5081446;28;20398;-87
2020/12/02 12:51:59;;;;;;;37.80;6.35;;;16.20;96.50;;;;;;5077898;28;20684;-89
2020/12/02 12:54:26;;;;;;;42.10;7.27;;;16.30;96.50;;;;;;5087967;28;20395;-89
2020/12/02 12:56:56;;;;;;;38.90;7.18;;;16.20;96.50;;;;;;5087780;28;20397;-90
2020/12/02 12:59:25;;;;;;;43.13;6.65;;;16.20;96.70;;;;;;5074213;28;20413;-88
2020/12/02 13:01:56;;;;;;;40.33;6.43;;;16.20;96.70;;;;;;5069589;28;20432;-90
2020/12/02 13:04:25;;;;;;;37.60;7.00;;;16.20;96.90;;;;;;5067467;28;20405;-90
2020/12/02 13:07:07;;;;;;;40.35;6.88;;;16.20;97.00;;;;;;5067850;28;20961;-90
2020/12/02 13:09:55;;;;;;;37.03;6.60;;;16.30;97.00;;;;;;5066164;28;20458;-88
2020/12/02 13:12:37;;;;;;;36.13;6.15;;;16.30;96.80;;;;;;5070006;28;20402;-88
2020/12/02 13:15:20;;;;;;;43.20;6.67;;;16.40;96.80;;;;;;5075778;28;20769;-88